Terminal Aerodrome Forecast
Issued by NWS

Current Version | Previous Version | Text Only | Print | Product List | Glossary On
Versions: 1 2 3 4 5 6 7 8 9 10 11 12 13 14 15 16
174
FTUS42 KTBW 081724
TAFPGD
TAF
KPGD 081724Z 0818/0918 25010G15KT P6SM SCT050 BKN250
     FM082000 25014G22KT P6SM SCT050 BKN250
     FM090500 28018G28KT P6SM BKN040
     FM091000 31012G18KT P6SM BKN040=

USA.gov is the U.S. government's official web portal to all federal, state and local government web resources and services.